Flight Track Log - Related Links

Times and Time Zones

All times are in EDT time to prevent confusion due to time zone crossing. See the N830QS flight status page for this flight to view local times or setup timezone preferences in your user account.


Time Position Orientation Groundspeed Altitude Reporting Facility
EDT Latitude Longitude Course Direction KTS MPH feet Rate Location/Type
Sun 03:40:11 PM 37.6667 -122.4833 297° West 253 291 3,200  Level Northern Cal TRACON
Sun 03:41:57 PM 37.6139 -122.5889 238° Southwest 284 327 7,000 2,447 Climbing Oakland Center
Sun 03:43:00 PM 37.5431 -122.4979 180° South  Level Estimated
Sun 03:43:59 PM 37.4447 -122.6269 180° South 290 334 12,500  Level Oakland Center
Sun 03:45:01 PM 37.3631 -122.6167 174° South 296 341 14,600 2,049 Climbing Oakland Center
Sun 03:46:02 PM 37.2772 -122.6061 174° South 308 354 16,700 2,146 Climbing Oakland Center
Sun 03:47:04 PM 37.1906 -122.5967 175° South 311 358 19,000 2,049 Climbing Oakland Center
Sun 03:48:05 PM 37.1042 -122.5878 175° South 313 360 20,900 1,672 Climbing Oakland Center
Sun 03:49:06 PM 37.0194 -122.5581 164° South 325 374 22,400 1,463 Climbing Oakland Center
Sun 03:50:08 PM 36.9478 -122.4856 141° Southeast 332 382 23,900 1,512 Climbing Oakland Center
Sun 03:51:09 PM 36.8592 -122.3967 141° Southeast 341 392 25,500 1,366 Climbing Oakland Center
Sun 03:52:11 PM 36.7814 -122.3214 142° Southeast 352 405 26,700 1,317 Climbing Oakland Center
Sun 03:53:12 PM 36.7042 -122.2450 142° Southeast 356 410 28,200 1,525 Climbing Oakland Center
Sun 03:54:13 PM 36.6258 -122.1706 143° Southeast 356 410 29,800 1,317 Climbing Oakland Center
Sun 03:55:15 PM 36.5469 -122.1000 144° Southeast 351 404 30,900 585 Climbing Oakland Center
Sun 03:56:16 PM 36.4656 -122.0192 141° Southeast 371 427 31,000 49 Climbing Oakland Center
Sun 03:57:18 PM 36.3778 -121.9386 144° Southeast 389 448 31,000  Level Oakland Center
Sun 03:59:21 PM 36.1844 -121.7528 142° Southeast 408 470 31,000  Level Oakland Center
Sun 04:00:22 PM 36.0947 -121.6664 142° Southeast 409 471 31,000  Level Oakland Center
Sun 04:01:23 PM 36.0036 -121.5797 142° Southeast 412 474 31,000  Level Oakland Center
Sun 04:02:25 PM 35.9119 -121.4947 143° Southeast 412 474 31,000  Level Oakland Center
Sun 04:03:26 PM 35.8208 -121.4092 143° Southeast 413 475 31,000  Level Oakland Center
Sun 04:04:28 PM 35.7303 -121.3228 142° Southeast 412 474 31,000  Level Oakland Center
Sun 04:05:29 PM 35.6397 -121.2369 142° Southeast 411 473 31,000  Level Oakland Center
Sun 04:06:31 PM 35.5317 -121.1367 143° Southeast 408 470 31,000  Level Oakland Center
Sun 04:07:32 PM 35.4558 -121.0350 132° Southeast 408 470 31,000  Level Oakland Center
Sun 04:08:34 PM 35.3892 -120.9181 125° Southeast 414 476 31,000  Level Oakland Center
Sun 04:09:35 PM 35.3236 -120.8039 125° Southeast 414 476 31,000  Level Oakland Center
Sun 04:10:36 PM 35.2592 -120.6906 125° Southeast 411 473 31,000  Level Oakland Center
Sun 04:11:10 PM 35.2297 -120.6358 123° Southeast 413 475 31,000  Level Los Angeles Center
Sun 04:12:12 PM 35.1514 -120.4989 125° Southeast 410 472 31,000  Level Los Angeles Center
Sun 04:13:14 PM 35.0992 -120.4061 125° Southeast 411 473 31,000  Level Los Angeles Center
Sun 04:14:17 PM 35.0208 -120.2686 125° Southeast 409 471 31,000  Level Los Angeles Center
Sun 04:15:19 PM 34.9544 -120.1539 125° Southeast 411 473 31,000  Level Los Angeles Center
Sun 04:16:21 PM 34.8844 -120.0325 125° Southeast 413 475 31,000  Level Los Angeles Center
Sun 04:17:23 PM 34.8183 -119.9181 125° Southeast 415 478 31,000  Level Los Angeles Center
Sun 04:18:25 PM 34.7400 -119.7828 125° Southeast 410 472 31,000  Level Los Angeles Center
Sun 04:19:27 PM 34.6869 -119.6922 125° Southeast 411 473 31,000  Level Los Angeles Center
Sun 04:20:29 PM 34.6031 -119.5517 126° Southeast 412 474 31,000  Level Los Angeles Center
Sun 04:21:31 PM 34.5356 -119.4406 126° Southeast 411 473 31,000  Level Los Angeles Center
Sun 04:22:33 PM 34.4689 -119.3294 126° Southeast 408 470 31,000  Level Los Angeles Center
Sun 04:23:48 PM 34.4039 -119.2172 125° Southeast 408 470 31,000 -263 Level Los Angeles Center
Sun 04:24:50 PM 34.3242 -119.0858 126° Southeast 405 466 30,400 -968 Descending Los Angeles Center
Sun 04:25:52 PM 34.2589 -118.9733 125° Southeast 408 470 29,000 -1,597 Descending Los Angeles Center
Sun 04:26:54 PM 34.1775 -118.8386 126° Southeast 413 475 27,100 -1,597 Descending Los Angeles Center
Sun 04:27:56 PM 34.1103 -118.7281 126° Southeast 411 473 25,700 -1,306 Descending Los Angeles Center
Sun 04:28:58 PM 34.0469 -118.6208 125° Southeast 399 459 24,400 -823 Descending Los Angeles Center
Sun 04:30:00 PM 33.9853 -118.5183 126° Southeast 384 442 24,000 -750 Descending Los Angeles Center
Sun 04:31:14 PM 33.8869 -118.4511 150° Southeast 398 458 22,700 -1,401 Descending Los Angeles Center
Sun 04:32:17 PM 33.7572 -118.4950 196° South 382 440 20,800 -1,508 Descending Los Angeles Center
Sun 04:34:21 PM 33.5564 -118.5567 194° South 377 434 18,000 -1,387 Descending Los Angeles Center
Sun 04:35:23 PM 33.4706 -118.5025 152° Southeast 353 406 16,500 -1,645 Descending Los Angeles Center
Sun 04:36:25 PM 33.3797 -118.4158 141° Southeast 357 411 14,600 -1,548 Descending Los Angeles Center
Sun 04:37:27 PM 33.3581 -118.3042 103° East 351 404 13,300 -816 Descending Los Angeles Center
Sun 04:38:30 PM 33.3450 -118.1972 98° East 334 384 12,900 -864 Descending Los Angeles Center
Sun 04:39:32 PM 33.3322 -118.1011 99° East 303 349 11,500 -1,500 Descending Los Angeles Center
Sun 04:40:34 PM 33.3200 -118.0047 99° East 297 342 9,800 -2,468 Descending Los Angeles Center
Sun 04:41:36 PM 33.3044 -117.8928 99° East 287 330 6,400 -2,341 Descending Los Angeles Center
Sun 04:42:37 PM 33.2950 -117.8206 99° East 280 322 5,000 -677 Descending Los Angeles Center
Sun 04:43:40 PM 33.2806 -117.7144 99° East 272 313 5,000  Level Los Angeles Center
Sun 04:44:42 PM 33.2686 -117.6247 99° East 274 315 5,000 -100 Level Los Angeles Center
Sun 04:45:40 PM 33.2500 -117.5167 102° East 282 325 4,800 -536 Descending Southern California TRACON
Sun 04:46:34 PM 33.2500 -117.4333 90° East 274 315 4,000 -550 Descending Southern California TRACON
Sun 04:47:40 PM 33.2333 -117.3667 107° East 201 231 3,700 -667 Descending Southern California TRACON
Sun 04:48:40 PM 33.2167 -117.3000 107° East 191 220 2,600 -800 Descending Southern California TRACON
Sun 04:49:40 PM 33.2000 -117.2500 112° Southeast 191 220 2,100 -300 Descending Southern California TRACON
Sun 04:50:40 PM 33.1667 -117.2167 140° Southeast 154 177 2,000 -200 Descending Southern California TRACON
Sun 04:51:40 PM 33.1500 -117.2167 180° South 136 157 1,700 -545 Descending Southern California TRACON
Sun 04:52:41 PM 33.1333 -117.2500 239° Southwest 126 145 900 -787 Descending Southern California TRACON

Login

Don't have an account? Register now (free) for customized features, flight alerts, and more!